createdAt,value
2019-01-26T00:00:26.199Z,79.49
2019-01-26T00:01:26.190Z,79.00
2019-01-26T00:02:26.168Z,78.75
2019-01-26T00:03:26.163Z,79.32
2019-01-26T00:04:26.136Z,79.32
2019-01-26T00:05:26.171Z,79.38
2019-01-26T00:06:26.133Z,79.21
2019-01-26T00:07:26.112Z,79.49
2019-01-26T00:08:26.100Z,78.86
2019-01-26T00:09:26.093Z,79.38
2019-01-26T00:10:26.075Z,78.75
2019-01-26T00:11:26.084Z,79.38
2019-01-26T00:12:26.064Z,79.70
2019-01-26T00:13:26.058Z,79.91
2019-01-26T00:14:26.042Z,79.91
2019-01-26T00:15:26.025Z,79.91
2019-01-26T00:16:26.062Z,79.80
2019-01-26T00:17:26.020Z,79.91
2019-01-26T00:18:26.018Z,79.80
2019-01-26T00:19:26.043Z,80.33
2019-01-26T00:20:25.979Z,80.12
2019-01-26T00:21:25.993Z,80.44
2019-01-26T00:22:25.953Z,80.44
2019-01-26T00:23:25.957Z,80.86
2019-01-26T00:24:25.957Z,80.75
2019-01-26T00:25:25.934Z,80.86
2019-01-26T00:26:25.941Z,80.86
2019-01-26T00:27:25.897Z,81.07
2019-01-26T00:28:25.887Z,81.28
2019-01-26T00:29:25.885Z,81.38
2019-01-26T00:30:25.883Z,81.38
2019-01-26T00:31:25.879Z,81.49
2019-01-26T00:32:25.869Z,81.49
2019-01-26T00:33:25.872Z,81.70
2019-01-26T00:34:25.825Z,81.77
2019-01-26T00:35:25.823Z,81.59
2019-01-26T00:36:25.838Z,81.81
2019-01-26T00:37:32.908Z,82.12
2019-01-26T00:38:32.893Z,82.19
2019-01-26T00:39:25.797Z,82.23
2019-01-26T00:40:25.772Z,82.29
2019-01-26T00:41:25.773Z,82.40
2019-01-26T00:42:25.755Z,82.19
2019-01-26T00:43:32.791Z,81.87
2019-01-26T00:44:33.774Z,82.40
2019-01-26T00:45:32.854Z,82.29
2019-01-26T00:46:28.439Z,82.61
2019-01-26T00:47:32.764Z,82.61
2019-01-26T00:48:25.711Z,82.29
2019-01-26T00:49:32.774Z,82.71
2019-01-26T00:50:34.424Z,82.71
2019-01-26T00:51:25.656Z,82.71
2019-01-26T00:52:25.647Z,82.71
2019-01-26T00:53:25.641Z,82.46
2019-01-26T00:54:25.619Z,82.82
2019-01-26T00:55:25.610Z,82.57
2019-01-26T00:56:25.617Z,83.34
2019-01-26T00:57:25.589Z,83.62
2019-01-26T00:58:25.578Z,83.62
2019-01-26T00:59:25.565Z,84.29
2019-01-26T01:00:25.564Z,85.87
2019-01-26T01:01:25.588Z,87.45
2019-01-26T01:02:25.526Z,88.60
2019-01-26T01:03:25.573Z,89.70
2019-01-26T01:04:25.510Z,89.56
2019-01-26T01:05:25.508Z,89.28
2019-01-26T01:06:26.134Z,89.91
2019-01-26T01:07:25.498Z,90.23
2019-01-26T01:08:25.468Z,90.82
2019-01-26T01:09:25.468Z,90.23
2019-01-26T01:10:25.449Z,91.03
2019-01-26T01:11:32.521Z,91.03
2019-01-26T01:12:26.451Z,91.13
2019-01-26T01:13:25.473Z,92.33
2019-01-26T01:14:25.426Z,92.65
2019-01-26T01:15:25.406Z,92.65
2019-01-26T01:16:25.405Z,92.86
2019-01-26T01:17:25.377Z,92.54
2019-01-26T01:18:25.369Z,92.76
2019-01-26T01:19:25.364Z,91.77
2019-01-26T01:20:25.370Z,91.35
2019-01-26T01:21:25.378Z,91.03
2019-01-26T01:22:25.324Z,91.03
2019-01-26T01:23:25.331Z,91.45
2019-01-26T01:24:25.320Z,91.09
2019-01-26T01:25:25.308Z,90.99
2019-01-26T01:26:25.312Z,90.88
2019-01-26T01:27:25.271Z,90.56
2019-01-26T01:28:25.266Z,90.99
2019-01-26T01:29:25.259Z,90.36
2019-01-26T01:30:25.250Z,90.36
2019-01-26T01:31:25.254Z,91.20
2019-01-26T01:32:25.220Z,90.25
2019-01-26T01:33:25.209Z,90.36
2019-01-26T01:34:25.201Z,90.29
2019-01-26T01:35:25.188Z,90.08
2019-01-26T01:36:25.204Z,90.36
2019-01-26T01:37:25.166Z,90.46
2019-01-26T01:38:25.157Z,90.88
2019-01-26T01:39:25.156Z,90.67
2019-01-26T01:40:25.147Z,91.30
2019-01-26T01:41:25.141Z,91.30
2019-01-26T01:42:25.128Z,91.62
2019-01-26T01:43:25.100Z,91.72
2019-01-26T01:44:25.097Z,92.14
2019-01-26T01:45:25.110Z,92.04
2019-01-26T01:46:25.090Z,91.72
2019-01-26T01:47:25.088Z,91.93
2019-01-26T01:48:25.061Z,92.19
2019-01-26T01:49:25.043Z,92.67
2019-01-26T01:50:25.047Z,92.77
2019-01-26T01:51:25.039Z,92.46
2019-01-26T01:52:25.014Z,92.67
2019-01-26T01:53:25.038Z,92.77
2019-01-26T01:54:25.085Z,92.46
2019-01-26T01:55:24.980Z,93.41
2019-01-26T01:56:24.985Z,93.19
2019-01-26T01:57:24.961Z,93.93
2019-01-26T01:58:24.953Z,93.83
2019-01-26T01:59:24.943Z,94.46
2019-01-26T02:00:24.941Z,94.56
2019-01-26T02:01:24.959Z,94.67
2019-01-26T02:02:24.897Z,94.40
2019-01-26T02:03:24.894Z,94.56
2019-01-26T02:04:24.886Z,94.88
2019-01-26T02:05:24.881Z,94.35
2019-01-26T02:06:24.888Z,94.35
2019-01-26T02:07:24.851Z,94.25
2019-01-26T02:08:24.848Z,93.93
2019-01-26T02:09:24.834Z,93.62
2019-01-26T02:10:24.817Z,94.46
2019-01-26T02:11:24.812Z,94.56
2019-01-26T02:12:24.849Z,94.56
2019-01-26T02:13:31.882Z,94.14
2019-01-26T02:14:24.776Z,94.04
2019-01-26T02:15:24.793Z,94.14
2019-01-26T02:16:24.788Z,93.62
2019-01-26T02:17:24.783Z,94.25
2019-01-26T02:18:24.734Z,93.51
2019-01-26T02:19:24.734Z,94.35
2019-01-26T02:20:24.722Z,93.93
2019-01-26T02:21:24.709Z,94.31
2019-01-26T02:22:24.708Z,94.04
2019-01-26T02:23:24.695Z,93.37
2019-01-26T02:24:24.674Z,94.21
2019-01-26T02:25:24.669Z,93.41
2019-01-26T02:26:24.658Z,93.15
2019-01-26T02:27:24.680Z,93.51
2019-01-26T02:28:24.647Z,93.19
2019-01-26T02:29:24.641Z,93.30
2019-01-26T02:30:24.629Z,93.47
2019-01-26T02:31:24.609Z,94.04
2019-01-26T02:32:24.613Z,93.62
2019-01-26T02:33:24.594Z,93.89
2019-01-26T02:34:24.572Z,94.04
2019-01-26T02:35:24.590Z,93.72
2019-01-26T02:36:24.578Z,93.30
2019-01-26T02:37:24.552Z,93.93
2019-01-26T02:38:24.529Z,94.56
2019-01-26T02:39:24.523Z,93.62
2019-01-26T02:40:24.547Z,93.51
2019-01-26T02:41:24.516Z,94.35
2019-01-26T02:42:31.552Z,94.98
2019-01-26T02:43:31.541Z,94.67
2019-01-26T02:44:32.027Z,95.20
2019-01-26T02:45:24.491Z,95.93
2019-01-26T02:46:24.456Z,95.68
2019-01-26T02:47:24.458Z,95.62
2019-01-26T02:48:24.418Z,95.68
2019-01-26T02:49:24.425Z,96.10
2019-01-26T02:50:24.434Z,96.10
2019-01-26T02:51:24.441Z,96.10
2019-01-26T02:52:24.412Z,95.83
2019-01-26T02:53:24.389Z,96.35
2019-01-26T02:54:24.397Z,97.15
2019-01-26T02:55:24.366Z,97.36
2019-01-26T02:56:24.360Z,96.77
2019-01-26T02:57:24.362Z,97.09
2019-01-26T02:58:24.327Z,97.41
2019-01-26T02:59:24.327Z,97.78
2019-01-26T03:00:24.318Z,97.47
2019-01-26T03:01:24.331Z,97.41
2019-01-26T03:02:24.301Z,97.30
2019-01-26T03:03:24.301Z,97.41
2019-01-26T03:04:24.279Z,97.30
2019-01-26T03:05:24.270Z,97.72
2019-01-26T03:06:24.246Z,97.72
2019-01-26T03:07:24.239Z,97.61
2019-01-26T03:08:24.220Z,97.61
2019-01-26T03:09:24.212Z,96.98
2019-01-26T03:10:24.200Z,97.82
2019-01-26T03:11:24.198Z,98.20
2019-01-26T03:12:24.199Z,98.35
2019-01-26T03:13:24.176Z,99.61
2019-01-26T03:14:24.177Z,99.40
2019-01-26T03:15:24.152Z,98.66
2019-01-26T03:16:24.140Z,99.25
2019-01-26T03:17:24.143Z,98.88
2019-01-26T03:18:24.115Z,99.04
2019-01-26T03:19:24.105Z,99.36
2019-01-26T03:20:24.110Z,99.30
2019-01-26T03:21:24.104Z,99.25
2019-01-26T03:22:24.108Z,99.40
2019-01-26T03:23:24.074Z,99.40
2019-01-26T03:24:24.047Z,99.40
2019-01-26T03:25:24.033Z,99.30
2019-01-26T03:26:24.036Z,99.25
2019-01-26T03:27:24.042Z,99.67
2019-01-26T03:28:24.557Z,99.25
2019-01-26T03:29:24.009Z,99.57
2019-01-26T03:30:23.994Z,98.83
2019-01-26T03:31:23.989Z,98.35
2019-01-26T03:32:23.993Z,98.41
2019-01-26T03:33:23.974Z,98.41
2019-01-26T03:34:23.959Z,98.41
2019-01-26T03:35:23.946Z,98.30
2019-01-26T03:36:23.929Z,98.41
2019-01-26T03:37:23.934Z,98.41
2019-01-26T03:38:23.936Z,98.72
2019-01-26T03:39:23.911Z,98.10
2019-01-26T03:40:23.907Z,98.72
2019-01-26T03:41:23.885Z,98.72
2019-01-26T03:42:23.903Z,98.20
2019-01-26T03:43:23.854Z,98.36
2019-01-26T03:44:23.877Z,98.72
2019-01-26T03:45:23.849Z,98.72
2019-01-26T03:46:23.828Z,97.99
2019-01-26T03:47:23.875Z,98.20
2019-01-26T03:48:23.804Z,98.20
2019-01-26T03:49:23.799Z,98.10
2019-01-26T03:50:23.796Z,98.47
2019-01-26T03:51:23.792Z,98.52
2019-01-26T03:52:23.799Z,98.36
2019-01-26T03:53:31.586Z,98.58
2019-01-26T03:54:32.620Z,98.62
2019-01-26T03:55:31.624Z,98.26
2019-01-26T03:56:31.762Z,97.94
2019-01-26T03:57:30.839Z,98.30
2019-01-26T03:58:31.740Z,97.84
2019-01-26T03:59:23.728Z,97.84
2019-01-26T04:00:23.671Z,98.26
2019-01-26T04:01:23.659Z,97.84
2019-01-26T04:02:23.685Z,98.36
2019-01-26T04:03:23.671Z,97.94
2019-01-26T04:04:23.656Z,98.05
2019-01-26T04:05:23.661Z,98.16
2019-01-26T04:06:23.614Z,98.05
2019-01-26T04:07:23.658Z,98.16
2019-01-26T04:08:23.593Z,97.94
2019-01-26T04:09:23.591Z,98.05
2019-01-26T04:10:23.582Z,97.94
2019-01-26T04:11:23.609Z,98.05
2019-01-26T04:12:23.595Z,98.05
2019-01-26T04:13:23.545Z,98.26
2019-01-26T04:14:23.526Z,98.26
2019-01-26T04:15:23.543Z,98.16
2019-01-26T04:16:23.519Z,98.05
2019-01-26T04:17:23.698Z,98.26
2019-01-26T04:18:23.525Z,98.32
2019-01-26T04:19:23.524Z,98.36
2019-01-26T04:20:23.505Z,98.26
2019-01-26T04:21:23.489Z,98.16
2019-01-26T04:22:23.495Z,97.90
2019-01-26T04:23:23.473Z,98.11
2019-01-26T04:24:23.447Z,98.00
2019-01-26T04:25:23.444Z,97.90
2019-01-26T04:26:23.419Z,98.11
2019-01-26T04:27:31.457Z,98.22
2019-01-26T04:28:23.408Z,98.00
2019-01-26T04:29:32.237Z,98.00
2019-01-26T04:30:30.399Z,98.00
2019-01-26T04:31:23.395Z,98.64
2019-01-26T04:32:30.537Z,98.74
2019-01-26T04:33:33.322Z,99.58
2019-01-26T04:35:35.034Z,99.37
2019-01-26T04:36:42.008Z,99.16
2019-01-26T04:37:41.983Z,99.01
2019-01-26T04:38:34.924Z,99.43
2019-01-26T04:39:34.904Z,99.43
2019-01-26T04:40:34.902Z,99.01
2019-01-26T04:41:34.909Z,99.11
2019-01-26T04:42:34.898Z,99.43
2019-01-26T04:43:34.903Z,99.43
2019-01-26T04:44:34.864Z,99.54
2019-01-26T04:45:34.856Z,99.22
2019-01-26T04:46:34.826Z,99.33
2019-01-26T04:47:34.883Z,99.22
2019-01-26T04:48:34.840Z,99.64
2019-01-26T04:49:34.863Z,99.74
2019-01-26T04:50:34.835Z,99.74
2019-01-26T04:51:34.829Z,99.64
2019-01-26T04:52:34.796Z,99.01
2019-01-26T04:53:34.827Z,99.80
2019-01-26T04:54:34.777Z,99.99
2019-01-26T04:55:34.748Z,99.99
2019-01-26T04:56:34.740Z,99.99
2019-01-26T04:57:34.727Z,99.99
2019-01-26T04:58:34.719Z,99.91
2019-01-26T04:59:34.702Z,99.70
2019-01-26T05:00:34.699Z,99.99
2019-01-26T05:01:34.700Z,99.80
2019-01-26T05:02:34.668Z,99.70
2019-01-26T05:03:34.683Z,99.99
2019-01-26T05:04:34.665Z,99.99
2019-01-26T05:05:34.638Z,99.99
2019-01-26T05:06:35.355Z,99.99
2019-01-26T05:07:34.613Z,99.99
2019-01-26T05:08:34.619Z,99.99
2019-01-26T05:09:34.605Z,99.99
2019-01-26T05:10:34.601Z,99.99
2019-01-26T05:11:34.573Z,99.99
2019-01-26T05:12:34.570Z,99.99
2019-01-26T05:13:34.557Z,99.99
2019-01-26T05:14:34.535Z,99.99
2019-01-26T05:15:34.528Z,99.99
2019-01-26T05:16:34.538Z,99.99
2019-01-26T05:17:39.287Z,99.99
2019-01-26T05:18:35.509Z,99.99
2019-01-26T05:19:34.483Z,99.99
2019-01-26T05:20:34.475Z,99.99
2019-01-26T05:21:34.477Z,99.99
2019-01-26T05:22:34.457Z,99.99
2019-01-26T05:23:34.481Z,99.99
2019-01-26T05:24:34.438Z,99.99
2019-01-26T05:25:34.426Z,99.99
2019-01-26T05:26:34.409Z,99.99
2019-01-26T05:27:34.427Z,99.99
2019-01-26T05:28:34.426Z,99.99
2019-01-26T05:29:34.425Z,99.99
2019-01-26T05:30:35.355Z,99.99
2019-01-26T05:31:34.372Z,99.99
2019-01-26T05:32:34.361Z,99.99
2019-01-26T05:33:34.390Z,99.99
2019-01-26T05:34:34.323Z,99.99
2019-01-26T05:35:34.335Z,99.99
2019-01-26T05:36:34.316Z,99.99
2019-01-26T05:37:34.300Z,99.99
2019-01-26T05:38:34.312Z,99.99
2019-01-26T05:39:34.283Z,99.99
2019-01-26T05:40:34.266Z,99.99
2019-01-26T05:41:34.274Z,99.99
2019-01-26T05:42:34.243Z,99.99
2019-01-26T05:43:34.270Z,99.99
2019-01-26T05:44:34.249Z,99.99
2019-01-26T05:45:41.288Z,99.99
2019-01-26T05:46:41.785Z,99.99
2019-01-26T05:47:48.330Z,99.99
2019-01-26T05:48:35.218Z,99.99
2019-01-26T05:49:34.182Z,99.99
2019-01-26T05:50:34.192Z,99.99
2019-01-26T05:51:34.169Z,99.99
2019-01-26T05:52:34.188Z,99.99
2019-01-26T05:53:34.157Z,99.99
2019-01-26T05:54:34.129Z,99.99
2019-01-26T05:55:34.121Z,99.99
2019-01-26T05:56:34.110Z,99.99
2019-01-26T05:57:34.098Z,99.99
2019-01-26T05:58:34.124Z,99.99
2019-01-26T05:59:34.107Z,99.99
2019-01-26T06:00:34.062Z,99.99
2019-01-26T06:01:34.054Z,99.99
2019-01-26T06:02:34.045Z,99.99
2019-01-26T06:03:34.050Z,99.99
2019-01-26T06:04:34.027Z,99.99
2019-01-26T06:05:34.004Z,99.99
2019-01-26T06:06:33.995Z,99.99
2019-01-26T06:07:34.000Z,99.99
2019-01-26T06:08:34.008Z,99.99
2019-01-26T06:09:33.975Z,99.99
2019-01-26T06:10:33.960Z,99.99
2019-01-26T06:11:33.981Z,99.99
2019-01-26T06:12:33.945Z,99.99
2019-01-26T06:13:33.947Z,99.99
2019-01-26T06:14:33.929Z,99.99
2019-01-26T06:15:33.929Z,99.99
2019-01-26T06:16:33.903Z,99.99
2019-01-26T06:17:33.901Z,99.99
2019-01-26T06:18:33.894Z,99.99
2019-01-26T06:19:33.868Z,99.99
2019-01-26T06:20:33.943Z,99.99
2019-01-26T06:21:33.868Z,99.99
2019-01-26T06:22:33.846Z,99.99
2019-01-26T06:23:33.840Z,99.99
2019-01-26T06:24:33.819Z,99.99
2019-01-26T06:25:33.821Z,99.99
2019-01-26T06:26:33.798Z,99.99
2019-01-26T06:27:40.862Z,99.99
2019-01-26T06:28:33.801Z,99.99
2019-01-26T06:29:33.796Z,99.99
2019-01-26T06:30:42.499Z,99.99
2019-01-26T06:31:33.741Z,99.99
2019-01-26T06:32:41.767Z,99.99
2019-01-26T06:33:33.755Z,99.99
2019-01-26T06:34:41.747Z,99.99
2019-01-26T06:35:33.711Z,99.99
2019-01-26T06:36:40.741Z,99.99
2019-01-26T06:37:33.684Z,99.99
2019-01-26T06:38:33.691Z,99.99
2019-01-26T06:39:33.671Z,99.99
2019-01-26T06:40:33.657Z,99.99
2019-01-26T06:41:33.633Z,99.99
2019-01-26T06:42:33.628Z,99.99
2019-01-26T06:43:33.633Z,99.99
2019-01-26T06:44:33.602Z,99.99
2019-01-26T06:45:33.603Z,99.99
2019-01-26T06:46:34.946Z,99.99
2019-01-26T06:47:33.568Z,99.99
2019-01-26T06:48:33.574Z,99.99
2019-01-26T06:49:33.576Z,99.99
2019-01-26T06:50:33.558Z,99.99
2019-01-26T06:51:33.533Z,99.99
2019-01-26T06:52:33.542Z,99.99
2019-01-26T06:53:33.519Z,99.99
2019-01-26T06:54:33.526Z,99.99
2019-01-26T06:55:33.498Z,99.99
2019-01-26T06:56:33.513Z,99.99
2019-01-26T06:57:33.480Z,99.99
2019-01-26T06:58:33.454Z,99.99
2019-01-26T06:59:33.460Z,99.99
2019-01-26T07:00:33.434Z,99.99
2019-01-26T07:01:33.439Z,99.99
2019-01-26T07:02:33.424Z,99.99
2019-01-26T07:03:33.416Z,99.99
2019-01-26T07:04:33.430Z,99.99
2019-01-26T07:05:33.395Z,99.99
2019-01-26T07:06:34.050Z,99.99
2019-01-26T07:07:33.375Z,99.99
2019-01-26T07:08:33.358Z,99.99
2019-01-26T07:09:33.368Z,99.99
2019-01-26T07:10:33.337Z,99.99
2019-01-26T07:11:33.333Z,99.99
2019-01-26T07:12:33.315Z,99.99
2019-01-26T07:13:33.335Z,99.99
2019-01-26T07:14:33.320Z,99.99
2019-01-26T07:15:33.298Z,99.99
2019-01-26T07:16:33.269Z,99.99
2019-01-26T07:17:33.265Z,99.99
2019-01-26T07:18:33.254Z,99.99
2019-01-26T07:19:33.276Z,99.99
2019-01-26T07:20:33.233Z,99.99
2019-01-26T07:21:33.240Z,99.99
2019-01-26T07:22:33.234Z,99.99
2019-01-26T07:23:33.216Z,99.99
2019-01-26T07:24:33.214Z,99.99
2019-01-26T07:25:33.198Z,99.99
2019-01-26T07:26:33.175Z,99.99
2019-01-26T07:27:33.158Z,99.99
2019-01-26T07:28:33.150Z,99.99
2019-01-26T07:29:33.632Z,99.99
2019-01-26T07:30:33.125Z,99.99
2019-01-26T07:31:33.155Z,99.99
2019-01-26T07:32:33.107Z,99.99
2019-01-26T07:33:33.144Z,99.99
2019-01-26T07:34:33.119Z,99.99
2019-01-26T07:35:33.086Z,99.99
2019-01-26T07:36:33.114Z,99.99
2019-01-26T07:37:33.074Z,99.99
2019-01-26T07:38:33.049Z,99.99
2019-01-26T07:39:33.049Z,99.99
2019-01-26T07:40:33.028Z,99.99
2019-01-26T07:41:33.014Z,99.99
2019-01-26T07:42:33.010Z,99.99
2019-01-26T07:43:33.001Z,99.99
2019-01-26T07:44:33.019Z,99.99
2019-01-26T07:45:32.977Z,99.99
2019-01-26T07:46:32.965Z,99.99
2019-01-26T07:47:33.555Z,99.99
2019-01-26T07:48:32.961Z,99.99
2019-01-26T07:49:32.978Z,99.99
2019-01-26T07:50:32.925Z,99.99
2019-01-26T07:51:32.913Z,99.99
2019-01-26T07:52:32.910Z,99.99
2019-01-26T07:53:32.897Z,99.99
2019-01-26T07:54:32.906Z,99.99
2019-01-26T07:55:32.894Z,99.99
2019-01-26T07:56:32.878Z,99.99
2019-01-26T07:57:32.849Z,99.99
2019-01-26T07:58:32.850Z,99.99
2019-01-26T07:59:32.840Z,99.99
2019-01-26T08:00:32.826Z,99.99
2019-01-26T08:01:32.804Z,99.99
2019-01-26T08:02:32.813Z,99.99
2019-01-26T08:03:32.796Z,99.99
2019-01-26T08:04:32.798Z,99.99
2019-01-26T08:05:33.882Z,99.99
2019-01-26T08:06:32.762Z,99.99
2019-01-26T08:07:32.774Z,99.99
2019-01-26T08:08:32.733Z,99.99
2019-01-26T08:09:32.759Z,99.99
2019-01-26T08:10:32.808Z,99.99
2019-01-26T08:11:32.720Z,99.99
2019-01-26T08:12:32.719Z,99.99
2019-01-26T08:13:32.709Z,99.99
2019-01-26T08:14:32.706Z,99.99
2019-01-26T08:15:32.706Z,99.99
2019-01-26T08:16:32.653Z,99.99
2019-01-26T08:17:32.654Z,99.99
2019-01-26T08:18:32.662Z,99.99
2019-01-26T08:19:32.647Z,99.99
2019-01-26T08:20:32.636Z,99.99
2019-01-26T08:21:32.600Z,99.99
2019-01-26T08:22:32.585Z,99.99
2019-01-26T08:23:32.599Z,99.99
2019-01-26T08:24:32.589Z,99.99
2019-01-26T08:25:32.581Z,99.99
2019-01-26T08:26:32.562Z,99.99
2019-01-26T08:27:32.548Z,99.99
2019-01-26T08:28:32.542Z,99.99
2019-01-26T08:29:32.530Z,99.99
2019-01-26T08:30:32.524Z,99.99
2019-01-26T08:31:32.516Z,99.99
2019-01-26T08:32:32.498Z,99.99
2019-01-26T08:33:32.484Z,99.99
2019-01-26T08:34:32.524Z,99.99
2019-01-26T08:35:32.457Z,99.99
2019-01-26T08:36:32.459Z,99.99
2019-01-26T08:37:32.471Z,99.99
2019-01-26T08:38:32.447Z,99.99
2019-01-26T08:39:32.446Z,99.99
2019-01-26T08:40:32.403Z,99.99
2019-01-26T08:41:32.401Z,99.99
2019-01-26T08:42:32.400Z,99.99
2019-01-26T08:43:32.387Z,99.99
2019-01-26T08:44:32.394Z,99.99
2019-01-26T08:45:32.357Z,99.99
2019-01-26T08:46:32.342Z,99.99
2019-01-26T08:47:32.373Z,99.99
2019-01-26T08:48:32.333Z,99.99
2019-01-26T08:49:32.349Z,99.99
2019-01-26T08:50:32.299Z,99.99
2019-01-26T08:51:32.293Z,99.99
2019-01-26T08:52:32.279Z,99.99
2019-01-26T08:53:32.272Z,99.99
2019-01-26T08:54:32.375Z,99.99
2019-01-26T08:55:32.264Z,99.99
2019-01-26T08:56:32.254Z,99.99
2019-01-26T08:57:32.225Z,99.99
2019-01-26T08:58:32.221Z,99.99
2019-01-26T08:59:32.211Z,99.99
2019-01-26T09:00:32.217Z,99.99
2019-01-26T09:01:32.196Z,99.99
2019-01-26T09:02:32.174Z,99.99
2019-01-26T09:03:32.159Z,99.99
2019-01-26T09:04:32.146Z,99.99
2019-01-26T09:05:32.162Z,99.99
2019-01-26T09:06:32.148Z,99.99
2019-01-26T09:07:32.129Z,99.99
2019-01-26T09:08:32.105Z,99.99
2019-01-26T09:09:32.094Z,99.99
2019-01-26T09:10:32.092Z,99.99
2019-01-26T09:11:32.094Z,99.99
2019-01-26T09:12:32.102Z,99.99
2019-01-26T09:13:32.064Z,99.99
2019-01-26T09:14:32.044Z,99.99
2019-01-26T09:15:32.046Z,99.99
2019-01-26T09:16:32.025Z,99.99
2019-01-26T09:17:32.020Z,99.99
2019-01-26T09:18:38.557Z,99.99
2019-01-26T09:19:32.990Z,99.99
2019-01-26T09:20:31.999Z,99.99
2019-01-26T09:21:31.968Z,99.99
2019-01-26T09:22:32.553Z,99.99
2019-01-26T09:23:31.952Z,99.99
2019-01-26T09:24:31.960Z,99.99
2019-01-26T09:25:31.957Z,99.99
2019-01-26T09:26:31.926Z,99.99
2019-01-26T09:27:31.905Z,99.99
2019-01-26T09:28:31.902Z,99.99
2019-01-26T09:29:31.888Z,99.99
2019-01-26T09:30:31.894Z,99.99
2019-01-26T09:31:31.864Z,99.99
2019-01-26T09:32:31.854Z,99.99
2019-01-26T09:33:31.843Z,99.99
2019-01-26T09:34:31.842Z,99.99
2019-01-26T09:35:31.847Z,99.99
2019-01-26T09:36:31.815Z,99.99
2019-01-26T09:37:31.800Z,99.99
2019-01-26T09:38:31.801Z,99.99
2019-01-26T09:39:31.787Z,99.99
2019-01-26T09:40:31.820Z,99.99
2019-01-26T09:41:31.764Z,99.99
2019-01-26T09:42:31.765Z,99.99
2019-01-26T09:43:31.758Z,99.99
2019-01-26T09:44:31.742Z,99.99
2019-01-26T09:45:31.753Z,99.99
2019-01-26T09:46:31.729Z,99.99
2019-01-26T09:47:31.715Z,99.99
2019-01-26T09:48:31.706Z,99.99
2019-01-26T09:49:31.676Z,99.99
2019-01-26T09:50:31.683Z,99.99
2019-01-26T09:51:31.661Z,99.99
2019-01-26T09:52:31.648Z,99.99
2019-01-26T09:53:31.655Z,99.99
2019-01-26T09:54:31.636Z,99.99
2019-01-26T09:55:31.633Z,99.99
2019-01-26T09:56:31.604Z,99.99
2019-01-26T09:57:31.598Z,99.99
2019-01-26T09:58:31.589Z,99.99
2019-01-26T09:59:31.585Z,99.99
2019-01-26T10:00:31.590Z,99.99
2019-01-26T10:01:31.558Z,99.99
2019-01-26T10:02:31.559Z,99.99
2019-01-26T10:03:31.539Z,99.99
2019-01-26T10:04:31.542Z,99.99
2019-01-26T10:05:31.538Z,99.99
2019-01-26T10:06:31.503Z,99.99
2019-01-26T10:07:31.513Z,99.99
2019-01-26T10:08:31.485Z,99.99
2019-01-26T10:09:31.493Z,99.99
2019-01-26T10:10:31.473Z,99.99
2019-01-26T10:11:31.471Z,99.99
2019-01-26T10:12:31.457Z,99.99
2019-01-26T10:13:31.437Z,99.99
2019-01-26T10:14:31.420Z,99.99
2019-01-26T10:15:31.424Z,99.99
2019-01-26T10:16:31.397Z,99.99
2019-01-26T10:17:31.398Z,99.99
2019-01-26T10:18:31.373Z,99.99
2019-01-26T10:19:31.364Z,99.99
2019-01-26T10:20:31.367Z,99.99
2019-01-26T10:21:31.341Z,99.99
2019-01-26T10:22:31.350Z,99.99
2019-01-26T10:23:31.340Z,99.99
2019-01-26T10:24:31.309Z,99.99
2019-01-26T10:25:31.314Z,99.99
2019-01-26T10:26:31.297Z,99.99
2019-01-26T10:27:31.296Z,99.99
2019-01-26T10:28:31.274Z,99.99
2019-01-26T10:29:31.270Z,99.99
2019-01-26T10:30:31.281Z,99.99
2019-01-26T10:31:31.248Z,99.99
2019-01-26T10:32:32.064Z,99.99
2019-01-26T10:33:31.226Z,99.99
2019-01-26T10:34:31.226Z,99.99
2019-01-26T10:35:31.216Z,99.99
2019-01-26T10:36:31.186Z,99.99
2019-01-26T10:37:31.176Z,99.99
2019-01-26T10:38:31.164Z,99.99
2019-01-26T10:39:31.171Z,99.99
2019-01-26T10:40:31.176Z,99.99
2019-01-26T10:41:31.153Z,99.99
2019-01-26T10:42:31.127Z,99.99
2019-01-26T10:43:31.118Z,99.99
2019-01-26T10:44:31.108Z,99.99
2019-01-26T10:45:31.110Z,99.99
2019-01-26T10:46:31.104Z,99.99
2019-01-26T10:47:31.067Z,99.99
2019-01-26T10:48:31.072Z,99.99
2019-01-26T10:49:31.054Z,99.99
2019-01-26T10:50:31.064Z,99.99
2019-01-26T10:51:31.043Z,99.99
2019-01-26T10:52:31.030Z,99.99
2019-01-26T10:53:31.015Z,99.99
2019-01-26T10:54:31.013Z,99.99
2019-01-26T10:55:31.056Z,99.99
2019-01-26T10:56:30.981Z,99.99
2019-01-26T10:57:30.985Z,99.99
2019-01-26T10:58:30.964Z,99.99
2019-01-26T10:59:30.947Z,99.99
2019-01-26T11:00:30.941Z,99.99
2019-01-26T11:01:30.940Z,99.99
2019-01-26T11:02:30.924Z,99.99
2019-01-26T11:03:30.912Z,99.99
2019-01-26T11:04:30.902Z,99.99
2019-01-26T11:05:30.879Z,99.99
2019-01-26T11:06:30.889Z,99.99
2019-01-26T11:07:30.888Z,99.99
2019-01-26T11:08:30.855Z,99.99
2019-01-26T11:09:30.848Z,99.99
2019-01-26T11:10:30.855Z,99.99
2019-01-26T11:11:30.854Z,99.99
2019-01-26T11:12:30.806Z,99.99
2019-01-26T11:13:30.794Z,99.99
2019-01-26T11:14:30.789Z,99.99
2019-01-26T11:15:30.791Z,99.99
2019-01-26T11:16:30.793Z,99.99
2019-01-26T11:17:30.769Z,99.99
2019-01-26T11:18:30.768Z,99.99
2019-01-26T11:19:30.735Z,99.99
2019-01-26T11:20:30.734Z,99.99
2019-01-26T11:21:30.726Z,99.99
2019-01-26T11:22:30.741Z,99.99
2019-01-26T11:23:30.695Z,99.99
2019-01-26T11:24:30.693Z,99.99
2019-01-26T11:25:30.672Z,99.99
2019-01-26T11:26:30.686Z,99.99
2019-01-26T11:27:30.663Z,99.99
2019-01-26T11:28:30.657Z,99.99
2019-01-26T11:29:30.628Z,99.99
2019-01-26T11:30:30.636Z,99.99
2019-01-26T11:31:30.627Z,99.99
2019-01-26T11:32:30.607Z,99.99
2019-01-26T11:33:30.593Z,99.99
2019-01-26T11:34:30.606Z,99.99
2019-01-26T11:35:30.573Z,99.99
2019-01-26T11:36:30.583Z,99.99
2019-01-26T11:37:30.555Z,99.99
2019-01-26T11:38:30.547Z,99.99
2019-01-26T11:39:30.529Z,99.99
2019-01-26T11:40:30.518Z,99.99
2019-01-26T11:41:30.521Z,99.99
2019-01-26T11:42:30.494Z,99.99
2019-01-26T11:43:30.491Z,99.99
2019-01-26T11:44:30.487Z,99.99
2019-01-26T11:45:30.479Z,99.99
2019-01-26T11:46:30.479Z,99.99
2019-01-26T11:47:30.442Z,99.99
2019-01-26T11:48:30.449Z,99.99
2019-01-26T11:49:30.424Z,99.99
2019-01-26T11:50:30.412Z,99.99
2019-01-26T11:51:30.425Z,99.99
2019-01-26T11:52:30.409Z,99.99
2019-01-26T11:53:31.077Z,99.99
2019-01-26T11:54:31.370Z,99.99
2019-01-26T11:55:30.367Z,99.77
2019-01-26T11:56:30.401Z,99.94
2019-01-26T11:57:30.348Z,99.99
2019-01-26T11:58:30.322Z,99.63
2019-01-26T11:59:30.323Z,99.52
2019-01-26T12:00:30.310Z,99.63
2019-01-26T12:01:30.302Z,99.32
2019-01-26T12:02:31.089Z,99.84
2019-01-26T12:03:30.296Z,99.52
2019-01-26T12:04:30.278Z,99.32
2019-01-26T12:05:37.324Z,99.63
2019-01-26T12:06:37.320Z,99.94
2019-01-26T12:07:38.295Z,99.52
2019-01-26T12:08:30.242Z,99.52
2019-01-26T12:09:37.293Z,99.68
2019-01-26T12:10:30.195Z,99.90
2019-01-26T12:11:38.262Z,98.69
2019-01-26T12:12:30.186Z,98.65
2019-01-26T12:13:30.173Z,98.65
2019-01-26T12:14:30.712Z,99.22
2019-01-26T12:15:30.167Z,98.60
2019-01-26T12:16:30.142Z,98.39
2019-01-26T12:17:30.151Z,98.13
2019-01-26T12:18:30.127Z,98.13
2019-01-26T12:19:30.117Z,97.92
2019-01-26T12:20:30.119Z,98.44
2019-01-26T12:21:30.105Z,98.02
2019-01-26T12:22:30.096Z,98.02
2019-01-26T12:23:30.060Z,98.54
2019-01-26T12:24:30.058Z,99.16
2019-01-26T12:25:30.053Z,98.69
2019-01-26T12:26:30.043Z,99.27
2019-01-26T12:27:30.035Z,99.11
2019-01-26T12:28:30.013Z,99.11
2019-01-26T12:29:30.005Z,99.11
2019-01-26T12:30:29.999Z,98.80
2019-01-26T12:31:29.988Z,98.80
2019-01-26T12:32:30.006Z,99.21
2019-01-26T12:33:29.967Z,99.01
2019-01-26T12:34:29.951Z,98.85
2019-01-26T12:35:29.944Z,99.16
2019-01-26T12:36:29.931Z,99.06
2019-01-26T12:37:29.934Z,99.21
2019-01-26T12:38:29.922Z,98.54
2019-01-26T12:39:29.902Z,98.65
2019-01-26T12:40:29.908Z,98.65
2019-01-26T12:41:29.878Z,98.44
2019-01-26T12:42:29.883Z,98.13
2019-01-26T12:43:29.874Z,97.71
2019-01-26T12:44:29.854Z,97.50
2019-01-26T12:45:29.838Z,97.71
2019-01-26T12:46:29.833Z,98.08
2019-01-26T12:47:29.839Z,97.09
2019-01-26T12:48:29.807Z,97.19
2019-01-26T12:49:29.897Z,97.40
2019-01-26T12:50:29.790Z,97.30
2019-01-26T12:51:29.785Z,97.61
2019-01-26T12:52:29.792Z,97.40
2019-01-26T12:53:29.753Z,96.88